KSTL METAR and TAF weather

Enter ICAO airport designator

Example: see airport list

Station Type Date Time Source
KSTL METAR 2016/06/25 13:51 UTC NOAA

KSTL 251351Z 21004KT 10SM BKN130 BKN250 28/19 A3009 RMK AO2 SLP175 ACC N T02830194

Station Type Date Time Source
KSTL Decoded METAR 2016/06/25 13:51 UTC NOAA

LAMBERT-ST LOUIS INTERNATIONAL AIRPORT , MO, United States (KSTL) 38-45N 90-22W 171M
Jun 25, 2016 - 09:51 AM EDT / 2016.06.25 1351 UTC
Wind: from the SSW (210 degrees) at 5 MPH (4 KT):0
Visibility: 10 mile(s):0
Sky conditions: mostly cloudy
Temperature: 82.9 F (28.3 C)
Dew Point: 66.9 F (19.4 C)
Relative Humidity: 58%
Pressure (altimeter): 30.09 in. Hg (1018 hPa)
ob: KSTL 251351Z 21004KT 10SM BKN130 BKN250 28/19 A3009 RMK AO2 SLP175 ACC N T02830194
cycle: 14

Station Type Date Time Source
KSTL TAF 2016/06/25 12:33 UTC NOAA

TAF KSTL 251132Z 2512/2618 14005KT P6SM SCT100 BKN250
FM251800 19008KT P6SM VCTS SCT050CB BKN250
FM260200 18004KT P6SM SCT050 BKN250